createdAt,value
2017-08-05T00:00:37.625Z,0
2017-08-05T00:01:37.107Z,0
2017-08-05T00:02:37.624Z,0
2017-08-05T00:03:37.625Z,0
2017-08-05T00:04:37.728Z,0
2017-08-05T00:05:37.618Z,0
2017-08-05T00:06:37.619Z,0
2017-08-05T00:07:37.722Z,0
2017-08-05T00:08:37.626Z,0
2017-08-05T00:09:37.621Z,0
2017-08-05T00:10:37.866Z,0
2017-08-05T00:11:37.865Z,0
2017-08-05T00:12:37.636Z,0
2017-08-05T00:13:37.609Z,0
2017-08-05T00:14:37.613Z,0
2017-08-05T00:15:37.620Z,0
2017-08-05T00:16:37.867Z,0
2017-08-05T00:17:37.610Z,0
2017-08-05T00:18:37.712Z,0
2017-08-05T00:19:37.606Z,0
2017-08-05T00:20:37.616Z,0
2017-08-05T00:21:37.603Z,0
2017-08-05T00:22:37.614Z,0
2017-08-05T00:23:37.704Z,0
2017-08-05T00:24:37.700Z,0
2017-08-05T00:25:37.393Z,0
2017-08-05T00:26:37.292Z,0
2017-08-05T00:27:37.290Z,0
2017-08-05T00:28:37.700Z,0
2017-08-05T00:29:37.701Z,0
2017-08-05T00:30:37.801Z,0
2017-08-05T00:31:37.292Z,0
2017-08-05T00:32:37.593Z,0
2017-08-05T00:33:37.693Z,0
2017-08-05T00:34:37.723Z,0
2017-08-05T00:35:37.739Z,0
2017-08-05T00:36:37.695Z,0
2017-08-05T00:37:37.291Z,0
2017-08-05T00:38:37.739Z,0
2017-08-05T00:39:37.684Z,0
2017-08-05T00:40:37.433Z,0
2017-08-05T00:41:37.279Z,0
2017-08-05T00:42:37.593Z,0
2017-08-05T00:43:37.741Z,0
2017-08-05T00:44:37.788Z,0
2017-08-05T00:45:37.278Z,0
2017-08-05T00:46:37.528Z,0
2017-08-05T00:47:37.573Z,0
2017-08-05T00:48:37.269Z,0
2017-08-05T00:49:37.578Z,0
2017-08-05T00:50:37.576Z,0
2017-08-05T00:51:37.573Z,0
2017-08-05T00:52:37.575Z,0
2017-08-05T00:53:37.569Z,0
2017-08-05T00:54:37.268Z,0
2017-08-05T00:55:37.569Z,0
2017-08-05T00:56:37.769Z,0
2017-08-05T00:57:37.568Z,0
2017-08-05T00:58:37.771Z,0
2017-08-05T00:59:37.565Z,0
2017-08-05T01:00:37.510Z,0
2017-08-05T01:01:37.454Z,0
2017-08-05T01:02:37.563Z,0
2017-08-05T01:03:37.568Z,0
2017-08-05T01:04:37.251Z,0
2017-08-05T01:05:37.553Z,0
2017-08-05T01:06:37.908Z,0
2017-08-05T01:07:37.707Z,0
2017-08-05T01:08:37.554Z,0
2017-08-05T01:09:37.572Z,0
2017-08-05T01:10:37.558Z,0
2017-08-05T01:11:37.250Z,0
2017-08-05T01:12:37.755Z,0
2017-08-05T01:13:37.255Z,0
2017-08-05T01:14:37.647Z,0
2017-08-05T01:15:37.547Z,0
2017-08-05T01:16:37.245Z,0
2017-08-05T01:17:37.489Z,0
2017-08-05T01:18:37.390Z,0
2017-08-05T01:19:37.673Z,0
2017-08-05T01:20:37.542Z,0
2017-08-05T01:21:37.536Z,0
2017-08-05T01:22:37.544Z,0
2017-08-05T01:23:37.641Z,0
2017-08-05T01:24:37.540Z,0
2017-08-05T01:25:37.556Z,0
2017-08-05T01:26:37.686Z,0
2017-08-05T01:27:37.533Z,0
2017-08-05T01:28:37.691Z,0
2017-08-05T01:29:37.688Z,0
2017-08-05T01:30:37.525Z,0
2017-08-05T01:31:37.527Z,0
2017-08-05T01:32:37.632Z,0
2017-08-05T01:33:37.531Z,0
2017-08-05T01:34:37.777Z,0
2017-08-05T01:35:37.526Z,0
2017-08-05T01:36:37.526Z,0
2017-08-05T01:37:37.529Z,0
2017-08-05T01:38:37.523Z,0
2017-08-05T01:39:37.218Z,0
2017-08-05T01:40:37.519Z,0
2017-08-05T01:41:37.517Z,0
2017-08-05T01:42:37.515Z,0
2017-08-05T01:43:37.526Z,0
2017-08-05T01:44:37.616Z,0
2017-08-05T01:45:37.715Z,0
2017-08-05T01:46:37.520Z,0
2017-08-05T01:47:37.516Z,0
2017-08-05T01:48:37.516Z,0
2017-08-05T01:49:37.606Z,0
2017-08-05T01:50:37.509Z,0
2017-08-05T01:51:37.511Z,0
2017-08-05T01:52:37.202Z,0
2017-08-05T01:53:37.612Z,0
2017-08-05T01:54:37.610Z,0
2017-08-05T01:55:37.511Z,0
2017-08-05T01:56:37.502Z,0
2017-08-05T01:57:37.608Z,0
2017-08-05T01:58:37.498Z,0
2017-08-05T01:59:37.493Z,0
2017-08-05T02:00:37.794Z,0
2017-08-05T02:01:37.501Z,0
2017-08-05T02:02:37.491Z,0
2017-08-05T02:03:37.488Z,0
2017-08-05T02:04:37.641Z,0
2017-08-05T02:05:37.588Z,0
2017-08-05T02:06:37.494Z,0
2017-08-05T02:07:37.483Z,0
2017-08-05T02:08:37.494Z,0
2017-08-05T02:09:37.587Z,0
2017-08-05T02:10:37.487Z,0
2017-08-05T02:11:37.584Z,0
2017-08-05T02:12:37.481Z,0
2017-08-05T02:13:37.478Z,0
2017-08-05T02:14:37.477Z,0
2017-08-05T02:15:37.579Z,0
2017-08-05T02:16:37.473Z,0
2017-08-05T02:17:37.475Z,0
2017-08-05T02:18:37.169Z,0
2017-08-05T02:19:37.472Z,0
2017-08-05T02:20:37.168Z,0
2017-08-05T02:21:37.620Z,0
2017-08-05T02:22:37.620Z,0
2017-08-05T02:23:37.170Z,0
2017-08-05T02:24:37.462Z,0
2017-08-05T02:25:37.463Z,0
2017-08-05T02:26:37.561Z,0
2017-08-05T02:27:37.614Z,0
2017-08-05T02:28:37.461Z,0
2017-08-05T02:29:37.457Z,0
2017-08-05T02:30:37.461Z,0
2017-08-05T02:31:37.303Z,0
2017-08-05T02:32:37.466Z,0
2017-08-05T02:33:37.563Z,0
2017-08-05T02:34:37.456Z,0
2017-08-05T02:35:37.455Z,0
2017-08-05T02:36:37.610Z,0
2017-08-05T02:37:37.455Z,0
2017-08-05T02:38:37.466Z,0
2017-08-05T02:39:37.455Z,0
2017-08-05T02:40:37.338Z,0
2017-08-05T02:41:37.555Z,0
2017-08-05T02:42:37.596Z,0
2017-08-05T02:43:37.137Z,0
2017-08-05T02:44:37.463Z,0
2017-08-05T02:45:37.446Z,0
2017-08-05T02:46:37.624Z,0
2017-08-05T02:47:37.140Z,0
2017-08-05T02:48:37.438Z,0
2017-08-05T02:49:37.533Z,0
2017-08-05T02:50:37.433Z,0
2017-08-05T02:51:37.441Z,0
2017-08-05T02:52:37.427Z,0
2017-08-05T02:53:37.629Z,0
2017-08-05T02:54:37.325Z,0
2017-08-05T02:55:37.424Z,0
2017-08-05T02:56:37.422Z,0
2017-08-05T02:57:37.122Z,0
2017-08-05T02:58:37.118Z,0
2017-08-05T02:59:37.533Z,0
2017-08-05T03:00:37.421Z,0
2017-08-05T03:01:37.418Z,0
2017-08-05T03:02:37.616Z,0
2017-08-05T03:03:37.570Z,0
2017-08-05T03:04:37.418Z,0
2017-08-05T03:05:37.407Z,0
2017-08-05T03:06:37.564Z,0
2017-08-05T03:07:37.569Z,0
2017-08-05T03:08:37.208Z,0
2017-08-05T03:09:37.412Z,0
2017-08-05T03:10:37.404Z,0
2017-08-05T03:11:37.409Z,0
2017-08-05T03:12:37.403Z,0
2017-08-05T03:13:37.407Z,0
2017-08-05T03:14:37.400Z,0
2017-08-05T03:15:37.393Z,0
2017-08-05T03:16:37.102Z,0
2017-08-05T03:17:37.397Z,0
2017-08-05T03:18:37.396Z,0
2017-08-05T03:19:37.597Z,0
2017-08-05T03:20:37.400Z,0
2017-08-05T03:21:37.394Z,0
2017-08-05T03:22:37.394Z,0
2017-08-05T03:23:37.402Z,0
2017-08-05T03:24:37.590Z,0
2017-08-05T03:25:37.229Z,0
2017-08-05T03:26:37.388Z,0
2017-08-05T03:27:37.383Z,0
2017-08-05T03:28:37.380Z,0
2017-08-05T03:29:37.481Z,0
2017-08-05T03:30:37.535Z,0
2017-08-05T03:31:37.397Z,0
2017-08-05T03:32:37.380Z,0
2017-08-05T03:33:37.377Z,4
2017-08-05T03:34:37.373Z,4
2017-08-05T03:35:37.483Z,0
2017-08-05T03:36:37.069Z,4
2017-08-05T03:37:37.368Z,4
2017-08-05T03:38:37.371Z,0
2017-08-05T03:39:37.365Z,4
2017-08-05T03:40:37.209Z,4
2017-08-05T03:41:37.368Z,8
2017-08-05T03:42:37.360Z,8
2017-08-05T03:43:37.359Z,8
2017-08-05T03:44:37.359Z,8
2017-08-05T03:45:37.356Z,12
2017-08-05T03:46:37.302Z,12
2017-08-05T03:47:37.358Z,16
2017-08-05T03:48:37.355Z,16
2017-08-05T03:49:37.449Z,16
2017-08-05T03:50:37.361Z,20
2017-08-05T03:51:37.042Z,24
2017-08-05T03:52:37.346Z,28
2017-08-05T03:53:37.496Z,28
2017-08-05T03:54:37.343Z,36
2017-08-05T03:55:37.478Z,40
2017-08-05T03:56:37.342Z,44
2017-08-05T03:57:37.344Z,48
2017-08-05T03:58:37.485Z,52
2017-08-05T03:59:37.340Z,60
2017-08-05T04:00:37.438Z,64
2017-08-05T04:01:37.280Z,72
2017-08-05T04:02:37.332Z,76
2017-08-05T04:03:37.340Z,84
2017-08-05T04:04:37.478Z,88
2017-08-05T04:05:37.335Z,96
2017-08-05T04:06:37.482Z,104
2017-08-05T04:07:37.426Z,116
2017-08-05T04:08:37.326Z,124
2017-08-05T04:09:37.420Z,136
2017-08-05T04:10:37.328Z,148
2017-08-05T04:11:37.472Z,156
2017-08-05T04:12:37.270Z,168
2017-08-05T04:13:37.316Z,184
2017-08-05T04:14:37.317Z,196
2017-08-05T04:15:37.325Z,212
2017-08-05T04:16:37.313Z,232
2017-08-05T04:17:37.560Z,248
2017-08-05T04:18:37.317Z,268
2017-08-05T04:19:37.310Z,288
2017-08-05T04:20:37.311Z,312
2017-08-05T04:21:37.318Z,336
2017-08-05T04:22:37.454Z,360
2017-08-05T04:23:37.310Z,380
2017-08-05T04:24:37.408Z,400
2017-08-05T04:25:36.996Z,416
2017-08-05T04:26:37.001Z,436
2017-08-05T04:27:37.294Z,456
2017-08-05T04:28:37.291Z,476
2017-08-05T04:29:37.295Z,500
2017-08-05T04:30:37.442Z,528
2017-08-05T04:31:36.981Z,556
2017-08-05T04:32:37.399Z,592
2017-08-05T04:33:37.291Z,636
2017-08-05T04:34:37.440Z,680
2017-08-05T04:35:37.435Z,720
2017-08-05T04:36:37.435Z,768
2017-08-05T04:37:37.280Z,844
2017-08-05T04:38:37.275Z,916
2017-08-05T04:39:37.278Z,972
2017-08-05T04:40:37.276Z,992
2017-08-05T04:41:36.967Z,1004
2017-08-05T04:42:37.272Z,1012
2017-08-05T04:43:37.283Z,1044
2017-08-05T04:44:36.969Z,1144
2017-08-05T04:45:37.366Z,1376
2017-08-05T04:46:37.426Z,1624
2017-08-05T04:47:37.273Z,1748
2017-08-05T04:48:36.956Z,1844
2017-08-05T04:49:37.268Z,1960
2017-08-05T04:50:36.965Z,2024
2017-08-05T04:51:37.267Z,1912
2017-08-05T04:52:37.367Z,1840
2017-08-05T04:53:37.258Z,1840
2017-08-05T04:54:37.263Z,1844
2017-08-05T04:55:37.258Z,1696
2017-08-05T04:56:37.457Z,1960
2017-08-05T04:57:37.259Z,1384
2017-08-05T04:58:37.361Z,1656
2017-08-05T04:59:37.253Z,1328
2017-08-05T05:00:37.255Z,1356
2017-08-05T05:01:36.943Z,1452
2017-08-05T05:02:37.248Z,2612
2017-08-05T05:03:37.089Z,2808
2017-08-05T05:04:37.244Z,2896
2017-08-05T05:05:37.246Z,3068
2017-08-05T05:06:37.252Z,3260
2017-08-05T05:07:37.391Z,2924
2017-08-05T05:08:36.934Z,3180
2017-08-05T05:09:37.243Z,3392
2017-08-05T05:10:37.542Z,3668
2017-08-05T05:11:37.239Z,3200
2017-08-05T05:12:37.260Z,2300
2017-08-05T05:13:37.236Z,3356
2017-08-05T05:14:37.233Z,3756
2017-08-05T05:15:37.539Z,4236
2017-08-05T05:16:37.237Z,2596
2017-08-05T05:17:37.244Z,4488
2017-08-05T05:18:37.230Z,4700
2017-08-05T05:19:37.230Z,4472
2017-08-05T05:20:37.235Z,4900
2017-08-05T05:21:37.072Z,5048
2017-08-05T05:22:37.235Z,5208
2017-08-05T05:23:37.429Z,5068
2017-08-05T05:24:37.230Z,6024
2017-08-05T05:25:37.224Z,6332
2017-08-05T05:26:37.235Z,6244
2017-08-05T05:27:37.527Z,3276
2017-08-05T05:28:37.231Z,5372
2017-08-05T05:29:36.924Z,5864
2017-08-05T05:30:36.918Z,5872
2017-08-05T05:31:37.228Z,6016
2017-08-05T05:32:37.333Z,5552
2017-08-05T05:33:37.228Z,6292
2017-08-05T05:34:37.328Z,6804
2017-08-05T05:35:36.923Z,6960
2017-08-05T05:36:37.238Z,6748
2017-08-05T05:37:37.329Z,6896
2017-08-05T05:38:36.922Z,6920
2017-08-05T05:39:37.330Z,7276
2017-08-05T05:40:37.231Z,7864
2017-08-05T05:41:37.228Z,8632
2017-08-05T05:42:37.236Z,9464
2017-08-05T05:43:37.021Z,10288
2017-08-05T05:44:37.225Z,11084
2017-08-05T05:45:37.231Z,12708
2017-08-05T05:46:37.225Z,14060
2017-08-05T05:47:37.237Z,6112
2017-08-05T05:48:37.226Z,4060
2017-08-05T05:49:37.085Z,4076
2017-08-05T05:50:37.387Z,4588
2017-08-05T05:51:37.237Z,5980
2017-08-05T05:52:37.242Z,3756
2017-08-05T05:53:37.242Z,3688
2017-08-05T05:54:37.439Z,3352
2017-08-05T05:55:37.243Z,3568
2017-08-05T05:56:37.239Z,3824
2017-08-05T05:57:37.237Z,4024
2017-08-05T05:58:37.244Z,4512
2017-08-05T05:59:37.340Z,6980
2017-08-05T06:00:37.244Z,13304
2017-08-05T06:01:36.942Z,6780
2017-08-05T06:02:37.241Z,10008
2017-08-05T06:03:37.348Z,5180
2017-08-05T06:04:37.248Z,6272
2017-08-05T06:05:37.247Z,7320
2017-08-05T06:06:37.444Z,10296
2017-08-05T06:07:37.246Z,6192
2017-08-05T06:08:37.256Z,16736
2017-08-05T06:09:37.444Z,22400
2017-08-05T06:10:37.247Z,21504
2017-08-05T06:11:37.254Z,8988
2017-08-05T06:12:37.255Z,5576
2017-08-05T06:13:37.348Z,5144
2017-08-05T06:14:37.349Z,5128
2017-08-05T06:15:37.357Z,5152
2017-08-05T06:16:37.255Z,5652
2017-08-05T06:17:36.898Z,5896
2017-08-05T06:18:37.356Z,12592
2017-08-05T06:19:37.253Z,8336
2017-08-05T06:20:37.255Z,6044
2017-08-05T06:21:37.257Z,6124
2017-08-05T06:22:37.253Z,5900
2017-08-05T06:23:37.552Z,6720
2017-08-05T06:24:37.361Z,5256
2017-08-05T06:25:36.950Z,5548
2017-08-05T06:26:37.268Z,5232
2017-08-05T06:27:37.257Z,5320
2017-08-05T06:28:37.263Z,5912
2017-08-05T06:29:37.406Z,6384
2017-08-05T06:30:37.287Z,13544
2017-08-05T06:31:37.363Z,5780
2017-08-05T06:32:37.267Z,7464
2017-08-05T06:33:37.262Z,7908
2017-08-05T06:34:37.260Z,6200
2017-08-05T06:35:37.365Z,5168
2017-08-05T06:36:37.264Z,3308
2017-08-05T06:37:37.267Z,3040
2017-08-05T06:38:37.415Z,3352
2017-08-05T06:39:37.370Z,7616
2017-08-05T06:40:37.372Z,3144
2017-08-05T06:41:36.968Z,2964
2017-08-05T06:42:37.267Z,3064
2017-08-05T06:43:37.271Z,3456
2017-08-05T06:44:37.419Z,3400
2017-08-05T06:45:37.271Z,6088
2017-08-05T06:46:36.966Z,5716
2017-08-05T06:47:37.382Z,12852
2017-08-05T06:48:37.283Z,9728
2017-08-05T06:49:37.295Z,13576
2017-08-05T06:50:37.270Z,8952
2017-08-05T06:51:37.374Z,22848
2017-08-05T06:52:37.272Z,29568
2017-08-05T06:53:36.971Z,23488
2017-08-05T06:54:37.527Z,25984
2017-08-05T06:55:37.373Z,11740
2017-08-05T06:56:37.272Z,11628
2017-08-05T06:57:37.275Z,8444
2017-08-05T06:58:37.279Z,16992
2017-08-05T06:59:36.968Z,26592
2017-08-05T07:00:37.284Z,20256
2017-08-05T07:01:37.077Z,27456
2017-08-05T07:02:37.287Z,26144
2017-08-05T07:03:37.288Z,24512
2017-08-05T07:04:37.400Z,26080
2017-08-05T07:05:37.291Z,27040
2017-08-05T07:06:37.285Z,26432
2017-08-05T07:07:36.997Z,26880
2017-08-05T07:08:37.292Z,24608
2017-08-05T07:09:37.083Z,10472
2017-08-05T07:10:37.291Z,26272
2017-08-05T07:11:37.295Z,25984
2017-08-05T07:12:37.301Z,27328
2017-08-05T07:13:37.297Z,11200
2017-08-05T07:14:37.303Z,8020
2017-08-05T07:15:37.302Z,10004
2017-08-05T07:16:37.294Z,28800
2017-08-05T07:17:37.307Z,29120
2017-08-05T07:18:37.106Z,12796
2017-08-05T07:19:37.399Z,7700
2017-08-05T07:20:37.311Z,12628
2017-08-05T07:21:37.000Z,12880
2017-08-05T07:22:37.311Z,6516
2017-08-05T07:23:37.305Z,9292
2017-08-05T07:24:37.329Z,25120
2017-08-05T07:25:37.331Z,23104
2017-08-05T07:26:37.319Z,22368
2017-08-05T07:27:37.316Z,16352
2017-08-05T07:28:37.322Z,11108
2017-08-05T07:29:37.419Z,12684
2017-08-05T07:30:37.322Z,12040
2017-08-05T07:31:37.431Z,10736
2017-08-05T07:32:37.333Z,10480
2017-08-05T07:33:37.323Z,10444
2017-08-05T07:34:37.531Z,7588
2017-08-05T07:35:37.436Z,7196
2017-08-05T07:36:37.122Z,7908
2017-08-05T07:37:37.336Z,10700
2017-08-05T07:38:37.336Z,8180
2017-08-05T07:39:37.334Z,9496
2017-08-05T07:40:37.450Z,8820
2017-08-05T07:41:37.339Z,7984
2017-08-05T07:42:37.341Z,8064
2017-08-05T07:43:37.036Z,7788
2017-08-05T07:44:37.342Z,7556
2017-08-05T07:45:37.447Z,7656
2017-08-05T07:46:37.242Z,8376
2017-08-05T07:47:36.732Z,9120
2017-08-05T07:48:37.355Z,7456
2017-08-05T07:49:37.451Z,6536
2017-08-05T07:50:37.051Z,7956
2017-08-05T07:51:37.068Z,8060
2017-08-05T07:52:37.454Z,7600
2017-08-05T07:53:37.356Z,7600
2017-08-05T07:54:37.380Z,8132
2017-08-05T07:55:37.375Z,8380
2017-08-05T07:56:37.367Z,8636
2017-08-05T07:57:37.519Z,8364
2017-08-05T07:58:37.372Z,8396
2017-08-05T07:59:37.369Z,8196
2017-08-05T08:00:37.370Z,7932
2017-08-05T08:01:37.373Z,7912
2017-08-05T08:02:37.217Z,7788
2017-08-05T08:03:37.377Z,7708
2017-08-05T08:04:37.482Z,8004
2017-08-05T08:05:37.378Z,8252
2017-08-05T08:06:37.173Z,8152
2017-08-05T08:07:37.530Z,7984
2017-08-05T08:08:37.393Z,7884
2017-08-05T08:09:37.401Z,7744
2017-08-05T08:10:37.397Z,8024
2017-08-05T08:11:37.494Z,8300
2017-08-05T08:12:37.388Z,7968
2017-08-05T08:13:37.081Z,7636
2017-08-05T08:14:37.389Z,7688
2017-08-05T08:15:37.398Z,7868
2017-08-05T08:16:37.402Z,7444
2017-08-05T08:17:37.394Z,6460
2017-08-05T08:18:37.394Z,5868
2017-08-05T08:19:37.398Z,5316
2017-08-05T08:20:37.397Z,5240
2017-08-05T08:21:37.097Z,5152
2017-08-05T08:22:37.756Z,4744
2017-08-05T08:23:37.560Z,4276
2017-08-05T08:24:37.402Z,3976
2017-08-05T08:25:37.403Z,3772
2017-08-05T08:26:37.411Z,3564
2017-08-05T08:27:37.504Z,3456
2017-08-05T08:28:37.411Z,3412
2017-08-05T08:29:37.560Z,3376
2017-08-05T08:30:37.408Z,3208
2017-08-05T08:31:37.524Z,2984
2017-08-05T08:32:37.514Z,2868
2017-08-05T08:33:37.109Z,2748
2017-08-05T08:34:37.418Z,2696
2017-08-05T08:35:37.414Z,2668
2017-08-05T08:36:37.113Z,2592
2017-08-05T08:37:37.519Z,2512
2017-08-05T08:38:37.522Z,2428
2017-08-05T08:39:36.809Z,2384
2017-08-05T08:40:37.428Z,2324
2017-08-05T08:41:37.426Z,2276
2017-08-05T08:42:37.566Z,2252
2017-08-05T08:43:37.424Z,2248
2017-08-05T08:44:37.438Z,2244
2017-08-05T08:45:37.570Z,2220
2017-08-05T08:46:37.120Z,2228
2017-08-05T08:47:37.216Z,2228
2017-08-05T08:48:37.425Z,2232
2017-08-05T08:49:37.118Z,2212
2017-08-05T08:50:37.122Z,2204
2017-08-05T08:51:37.425Z,2220
2017-08-05T08:52:37.528Z,2204
2017-08-05T08:53:37.431Z,2160
2017-08-05T08:54:37.427Z,2120
2017-08-05T08:55:37.429Z,2072
2017-08-05T08:56:37.438Z,2036
2017-08-05T08:57:37.136Z,2024
2017-08-05T08:58:37.433Z,2032
2017-08-05T08:59:37.628Z,2016
2017-08-05T09:00:37.577Z,2012
2017-08-05T09:01:37.434Z,2000
2017-08-05T09:02:37.430Z,2000
2017-08-05T09:03:37.436Z,1992
2017-08-05T09:04:37.537Z,1976
2017-08-05T09:05:37.225Z,1960
2017-08-05T09:06:37.135Z,1936
2017-08-05T09:07:37.442Z,1908
2017-08-05T09:08:37.434Z,1888
2017-08-05T09:09:36.827Z,1892
2017-08-05T09:10:37.444Z,1896
2017-08-05T09:11:37.594Z,1888
2017-08-05T09:12:37.125Z,1892
2017-08-05T09:13:37.433Z,1896
2017-08-05T09:14:37.443Z,1908
2017-08-05T09:15:37.442Z,1912
2017-08-05T09:16:37.277Z,1924
2017-08-05T09:17:37.439Z,1956
2017-08-05T09:18:37.439Z,1968
2017-08-05T09:19:37.685Z,1992
2017-08-05T09:20:37.434Z,2020
2017-08-05T09:21:37.439Z,2044
2017-08-05T09:22:37.537Z,2016
2017-08-05T09:23:37.442Z,2032
2017-08-05T09:24:37.537Z,2060
2017-08-05T09:25:37.642Z,2072
2017-08-05T09:26:37.443Z,2092
2017-08-05T09:27:37.439Z,2108
2017-08-05T09:28:37.138Z,2092
2017-08-05T09:29:37.440Z,2128
2017-08-05T09:30:37.437Z,2072
2017-08-05T09:31:37.130Z,2028
2017-08-05T09:32:37.542Z,2024
2017-08-05T09:33:37.444Z,2116
2017-08-05T09:34:37.437Z,1972
2017-08-05T09:35:37.350Z,1980
2017-08-05T09:36:37.436Z,2348
2017-08-05T09:37:37.532Z,2740
2017-08-05T09:38:37.444Z,3140
2017-08-05T09:39:37.132Z,3192
2017-08-05T09:40:37.541Z,2488
2017-08-05T09:41:37.139Z,2216
2017-08-05T09:42:37.442Z,2068
2017-08-05T09:43:37.433Z,1920
2017-08-05T09:44:37.436Z,1836
2017-08-05T09:45:37.646Z,1824
2017-08-05T09:46:37.446Z,1840
2017-08-05T09:47:37.543Z,1852
2017-08-05T09:48:37.441Z,1892
2017-08-05T09:49:37.543Z,1924
2017-08-05T09:50:37.440Z,2048
2017-08-05T09:51:37.137Z,2176
2017-08-05T09:52:37.442Z,2424
2017-08-05T09:53:37.437Z,2396
2017-08-05T09:54:37.448Z,2084
2017-08-05T09:55:37.607Z,1752
2017-08-05T09:56:37.443Z,1676
2017-08-05T09:57:37.539Z,1648
2017-08-05T09:58:37.469Z,1620
2017-08-05T09:59:37.541Z,1608
2017-08-05T10:00:37.391Z,1592
2017-08-05T10:01:37.450Z,1600
2017-08-05T10:02:37.449Z,1588
2017-08-05T10:03:37.442Z,1600
2017-08-05T10:04:37.642Z,1592
2017-08-05T10:05:37.538Z,1588
2017-08-05T10:06:37.437Z,1580
2017-08-05T10:07:37.437Z,1580
2017-08-05T10:08:37.441Z,1564
2017-08-05T10:09:37.591Z,1560
2017-08-05T10:10:37.593Z,1564
2017-08-05T10:11:37.136Z,1548
2017-08-05T10:12:37.449Z,1560
2017-08-05T10:13:37.452Z,1552
2017-08-05T10:14:37.439Z,1540
2017-08-05T10:15:37.550Z,1532
2017-08-05T10:16:37.545Z,1520
2017-08-05T10:17:37.441Z,1516
2017-08-05T10:18:37.447Z,1528
2017-08-05T10:19:37.441Z,1548
2017-08-05T10:20:37.140Z,1460
2017-08-05T10:21:37.647Z,1532
2017-08-05T10:22:37.559Z,1580
2017-08-05T10:23:37.450Z,1572
2017-08-05T10:24:37.597Z,1552
2017-08-05T10:25:37.445Z,1548
2017-08-05T10:26:37.548Z,1624
2017-08-05T10:27:37.137Z,1744
2017-08-05T10:28:37.135Z,1868
2017-08-05T10:29:37.290Z,1820
2017-08-05T10:30:37.446Z,1696
2017-08-05T10:31:37.443Z,1652
2017-08-05T10:32:37.550Z,1864
2017-08-05T10:33:37.599Z,2032
2017-08-05T10:34:37.601Z,1960
2017-08-05T10:35:37.445Z,1948
2017-08-05T10:36:37.445Z,2060
2017-08-05T10:37:37.243Z,1804
2017-08-05T10:38:37.150Z,1576
2017-08-05T10:39:37.457Z,1492
2017-08-05T10:40:37.450Z,1512
2017-08-05T10:41:37.546Z,1520
2017-08-05T10:42:37.449Z,1528
2017-08-05T10:43:37.294Z,1564
2017-08-05T10:44:37.147Z,1532
2017-08-05T10:45:37.448Z,1640
2017-08-05T10:46:37.449Z,1944
2017-08-05T10:47:37.447Z,1860
2017-08-05T10:48:37.458Z,1688
2017-08-05T10:49:37.447Z,1532
2017-08-05T10:50:37.445Z,1416
2017-08-05T10:51:37.245Z,1376
2017-08-05T10:52:37.306Z,1344
2017-08-05T10:53:37.242Z,1328
2017-08-05T10:54:37.264Z,1316
2017-08-05T10:55:37.451Z,1312
2017-08-05T10:56:37.452Z,1300
2017-08-05T10:57:37.443Z,1304
2017-08-05T10:58:37.547Z,1388
2017-08-05T10:59:37.483Z,1356
2017-08-05T11:00:37.443Z,1296
2017-08-05T11:01:37.554Z,1304
2017-08-05T11:02:37.452Z,1280
2017-08-05T11:03:37.454Z,1284
2017-08-05T11:04:37.449Z,1408
2017-08-05T11:05:37.550Z,1424
2017-08-05T11:06:37.444Z,1804
2017-08-05T11:07:37.240Z,1760
2017-08-05T11:08:37.547Z,1512
2017-08-05T11:09:37.451Z,1404
2017-08-05T11:10:37.443Z,1316
2017-08-05T11:11:37.454Z,1264
2017-08-05T11:12:37.146Z,1240
2017-08-05T11:13:37.457Z,1232
2017-08-05T11:14:37.140Z,1236
2017-08-05T11:15:37.440Z,1236
2017-08-05T11:16:37.165Z,1216
2017-08-05T11:17:37.544Z,1224
2017-08-05T11:18:37.448Z,1284
2017-08-05T11:19:37.454Z,1356
2017-08-05T11:20:37.557Z,1372
2017-08-05T11:21:37.141Z,1292
2017-08-05T11:22:37.450Z,1232
2017-08-05T11:23:37.452Z,1216
2017-08-05T11:24:37.390Z,1216
2017-08-05T11:25:37.452Z,1208
2017-08-05T11:26:37.551Z,1204
2017-08-05T11:27:37.448Z,1300
2017-08-05T11:28:37.241Z,1416
2017-08-05T11:29:37.448Z,1292
2017-08-05T11:30:37.449Z,1236
2017-08-05T11:31:37.145Z,1212
2017-08-05T11:32:37.458Z,1200
2017-08-05T11:33:37.242Z,1168
2017-08-05T11:34:37.340Z,1184
2017-08-05T11:35:37.450Z,1192
2017-08-05T11:36:37.570Z,1200
2017-08-05T11:37:37.145Z,1208
2017-08-05T11:38:37.454Z,1220
2017-08-05T11:39:37.142Z,1228
2017-08-05T11:40:37.444Z,1384
2017-08-05T11:41:37.442Z,1456
2017-08-05T11:42:37.290Z,1552
2017-08-05T11:43:37.549Z,1764
2017-08-05T11:44:36.834Z,1768
2017-08-05T11:45:37.560Z,1808
2017-08-05T11:46:37.453Z,1852
2017-08-05T11:47:37.453Z,1976
2017-08-05T11:48:37.444Z,1936
2017-08-05T11:49:37.447Z,1928
2017-08-05T11:50:37.448Z,1848
2017-08-05T11:51:37.543Z,1928
2017-08-05T11:52:37.448Z,1940
2017-08-05T11:53:37.449Z,1996
2017-08-05T11:54:37.453Z,2080
2017-08-05T11:55:37.455Z,1908
2017-08-05T11:56:37.447Z,1800
2017-08-05T11:57:37.449Z,1708
2017-08-05T11:58:37.448Z,1540
2017-08-05T11:59:37.146Z,1412
2017-08-05T12:00:37.142Z,1320
2017-08-05T12:01:37.348Z,1272
2017-08-05T12:02:37.552Z,1220
2017-08-05T12:03:37.448Z,1196
2017-08-05T12:04:37.553Z,1192
2017-08-05T12:05:37.649Z,1208
2017-08-05T12:06:37.451Z,1248
2017-08-05T12:07:37.651Z,1284
2017-08-05T12:08:37.451Z,1264
2017-08-05T12:09:37.456Z,1252
2017-08-05T12:10:37.463Z,1160
2017-08-05T12:11:37.247Z,1004
2017-08-05T12:12:37.244Z,1192
2017-08-05T12:13:37.449Z,1084
2017-08-05T12:14:37.451Z,980
2017-08-05T12:15:37.456Z,1244
2017-08-05T12:16:37.449Z,1156
2017-08-05T12:17:37.445Z,1288
2017-08-05T12:18:36.840Z,1076
2017-08-05T12:19:37.556Z,1148
2017-08-05T12:20:37.454Z,1708
2017-08-05T12:21:37.149Z,2116
2017-08-05T12:22:37.549Z,2604
2017-08-05T12:23:37.347Z,2560
2017-08-05T12:24:37.454Z,2416
2017-08-05T12:25:37.454Z,2580
2017-08-05T12:26:37.452Z,2120
2017-08-05T12:27:37.553Z,2280
2017-08-05T12:28:37.471Z,2588
2017-08-05T12:29:37.346Z,3000
2017-08-05T12:30:37.248Z,3136
2017-08-05T12:31:37.453Z,2956
2017-08-05T12:32:37.458Z,2936
2017-08-05T12:33:37.451Z,2472
2017-08-05T12:34:37.655Z,2352
2017-08-05T12:35:37.464Z,2544
2017-08-05T12:36:37.656Z,2648
2017-08-05T12:37:37.449Z,2536
2017-08-05T12:38:37.249Z,2140
2017-08-05T12:39:37.497Z,2036
2017-08-05T12:40:37.448Z,2324
2017-08-05T12:41:37.451Z,2884
2017-08-05T12:42:37.459Z,2784
2017-08-05T12:43:37.462Z,2484
2017-08-05T12:44:37.246Z,2216
2017-08-05T12:45:37.452Z,2388
2017-08-05T12:46:37.455Z,2176
2017-08-05T12:47:37.570Z,1752
2017-08-05T12:48:37.460Z,1756
2017-08-05T12:49:37.454Z,1872
2017-08-05T12:50:37.456Z,2168
2017-08-05T12:51:37.460Z,2468
2017-08-05T12:52:37.458Z,2932
2017-08-05T12:53:37.460Z,2632
2017-08-05T12:54:37.464Z,2448
2017-08-05T12:55:36.841Z,2888
2017-08-05T12:56:37.562Z,2940
2017-08-05T12:57:37.556Z,2536
2017-08-05T12:58:37.461Z,2604
2017-08-05T12:59:37.460Z,2512
2017-08-05T13:00:37.458Z,2532
2017-08-05T13:01:36.946Z,2556
2017-08-05T13:02:37.558Z,2532
2017-08-05T13:03:37.153Z,2784
2017-08-05T13:04:37.159Z,2816
2017-08-05T13:05:37.460Z,2928
2017-08-05T13:06:37.657Z,3252
2017-08-05T13:07:37.462Z,3116
2017-08-05T13:08:37.467Z,3272
2017-08-05T13:09:37.299Z,2916
2017-08-05T13:10:37.464Z,2644
2017-08-05T13:11:37.565Z,2716
2017-08-05T13:12:37.565Z,2564
2017-08-05T13:13:37.460Z,2556
2017-08-05T13:14:37.610Z,2636
2017-08-05T13:15:37.164Z,2908
2017-08-05T13:16:37.462Z,2804
2017-08-05T13:17:37.617Z,2864
2017-08-05T13:18:37.271Z,2816
2017-08-05T13:19:37.162Z,3024
2017-08-05T13:20:37.469Z,3168
2017-08-05T13:21:37.468Z,3128
2017-08-05T13:22:37.255Z,3168
2017-08-05T13:23:37.159Z,2860
2017-08-05T13:24:37.353Z,2624
2017-08-05T13:25:37.568Z,1924
2017-08-05T13:26:37.461Z,1496
2017-08-05T13:27:36.851Z,1304
2017-08-05T13:28:37.316Z,1228
2017-08-05T13:29:37.569Z,1188
2017-08-05T13:30:37.574Z,1268
2017-08-05T13:31:37.262Z,1608
2017-08-05T13:32:37.471Z,1684
2017-08-05T13:33:37.473Z,1684
2017-08-05T13:34:37.478Z,1692
2017-08-05T13:35:37.261Z,1508
2017-08-05T13:36:37.468Z,1368
2017-08-05T13:37:37.468Z,1276
2017-08-05T13:38:37.466Z,960
2017-08-05T13:39:37.468Z,1052
2017-08-05T13:40:37.673Z,1092
2017-08-05T13:41:37.472Z,1096